sensor_id;sensor_type;location;lat;lon;timestamp;P1;durP1;ratioP1;P2;durP2;ratioP2
31043;SDS011;17710;52.520;13.352;2023-03-01T00:00:02;31.20;;;14.20;;
31043;SDS011;17710;52.520;13.352;2023-03-01T00:02:30;34.22;;;13.20;;
31043;SDS011;17710;52.520;13.352;2023-03-01T00:04:56;30.33;;;13.85;;
31043;SDS011;17710;52.520;13.352;2023-03-01T00:07:22;31.30;;;13.38;;
31043;SDS011;17710;52.520;13.352;2023-03-01T00:09:49;34.03;;;13.48;;
31043;SDS011;17710;52.520;13.352;2023-03-01T00:12:16;28.25;;;12.70;;
31043;SDS011;17710;52.520;13.352;2023-03-01T00:14:43;29.45;;;12.32;;
31043;SDS011;17710;52.520;13.352;2023-03-01T00:17:09;29.05;;;12.75;;
31043;SDS011;17710;52.520;13.352;2023-03-01T00:19:36;29.42;;;13.20;;
31043;SDS011;17710;52.520;13.352;2023-03-01T00:22:03;33.83;;;12.35;;
31043;SDS011;17710;52.520;13.352;2023-03-01T00:24:48;32.00;;;13.15;;
31043;SDS011;17710;52.520;13.352;2023-03-01T00:27:14;32.25;;;12.90;;
31043;SDS011;17710;52.520;13.352;2023-03-01T00:29:42;30.38;;;12.52;;
31043;SDS011;17710;52.520;13.352;2023-03-01T00:32:09;26.88;;;12.55;;
31043;SDS011;17710;52.520;13.352;2023-03-01T00:34:35;31.52;;;13.90;;
31043;SDS011;17710;52.520;13.352;2023-03-01T00:37:01;28.40;;;12.30;;
31043;SDS011;17710;52.520;13.352;2023-03-01T00:39:30;35.17;;;13.60;;
31043;SDS011;17710;52.520;13.352;2023-03-01T00:41:57;36.35;;;13.90;;
31043;SDS011;17710;52.520;13.352;2023-03-01T00:44:25;34.10;;;14.63;;
31043;SDS011;17710;52.520;13.352;2023-03-01T00:46:53;28.98;;;13.35;;
31043;SDS011;17710;52.520;13.352;2023-03-01T00:49:19;32.72;;;13.43;;
31043;SDS011;17710;52.520;13.352;2023-03-01T00:51:46;28.63;;;13.57;;
31043;SDS011;17710;52.520;13.352;2023-03-01T00:54:12;30.52;;;13.88;;
31043;SDS011;17710;52.520;13.352;2023-03-01T00:56:38;31.42;;;14.65;;
31043;SDS011;17710;52.520;13.352;2023-03-01T00:59:05;34.85;;;14.32;;
31043;SDS011;17710;52.520;13.352;2023-03-01T01:01:33;33.20;;;14.10;;
31043;SDS011;17710;52.520;13.352;2023-03-01T01:04:00;31.05;;;13.52;;
31043;SDS011;17710;52.520;13.352;2023-03-01T01:06:29;27.83;;;13.65;;
31043;SDS011;17710;52.520;13.352;2023-03-01T01:08:57;32.92;;;14.30;;
31043;SDS011;17710;52.520;13.352;2023-03-01T01:11:25;27.20;;;13.27;;
31043;SDS011;17710;52.520;13.352;2023-03-01T01:13:53;28.20;;;14.90;;
31043;SDS011;17710;52.520;13.352;2023-03-01T01:16:20;32.45;;;14.20;;
31043;SDS011;17710;52.520;13.352;2023-03-01T01:18:50;36.25;;;14.35;;
31043;SDS011;17710;52.520;13.352;2023-03-01T01:21:18;31.98;;;14.32;;
31043;SDS011;17710;52.520;13.352;2023-03-01T01:23:47;33.75;;;13.93;;
31043;SDS011;17710;52.520;13.352;2023-03-01T01:26:15;33.30;;;15.05;;
31043;SDS011;17710;52.520;13.352;2023-03-01T01:28:43;34.53;;;14.05;;
31043;SDS011;17710;52.520;13.352;2023-03-01T01:31:10;37.45;;;14.65;;
31043;SDS011;17710;52.520;13.352;2023-03-01T01:33:36;30.13;;;14.75;;
31043;SDS011;17710;52.520;13.352;2023-03-01T01:36:05;32.17;;;15.27;;
31043;SDS011;17710;52.520;13.352;2023-03-01T01:38:32;30.83;;;14.45;;
31043;SDS011;17710;52.520;13.352;2023-03-01T01:40:58;39.35;;;15.80;;
31043;SDS011;17710;52.520;13.352;2023-03-01T01:43:26;39.55;;;15.13;;
31043;SDS011;17710;52.520;13.352;2023-03-01T01:45:54;33.25;;;15.35;;
31043;SDS011;17710;52.520;13.352;2023-03-01T01:48:24;31.13;;;14.68;;
31043;SDS011;17710;52.520;13.352;2023-03-01T01:51:06;34.13;;;14.93;;
31043;SDS011;17710;52.520;13.352;2023-03-01T01:53:35;32.60;;;14.38;;
31043;SDS011;17710;52.520;13.352;2023-03-01T01:56:05;33.35;;;15.02;;
31043;SDS011;17710;52.520;13.352;2023-03-01T01:58:34;37.00;;;15.48;;
31043;SDS011;17710;52.520;13.352;2023-03-01T02:01:02;34.08;;;15.48;;
31043;SDS011;17710;52.520;13.352;2023-03-01T02:03:30;33.92;;;15.88;;
31043;SDS011;17710;52.520;13.352;2023-03-01T02:06:04;35.05;;;15.70;;
31043;SDS011;17710;52.520;13.352;2023-03-01T02:08:35;40.60;;;16.45;;
31043;SDS011;17710;52.520;13.352;2023-03-01T02:11:04;37.13;;;14.82;;
31043;SDS011;17710;52.520;13.352;2023-03-01T02:13:31;35.70;;;16.40;;
31043;SDS011;17710;52.520;13.352;2023-03-01T02:16:02;39.35;;;16.15;;
31043;SDS011;17710;52.520;13.352;2023-03-01T02:18:31;35.55;;;15.50;;
31043;SDS011;17710;52.520;13.352;2023-03-01T02:23:56;36.83;;;15.23;;
31043;SDS011;17710;52.520;13.352;2023-03-01T02:26:31;32.30;;;16.20;;
31043;SDS011;17710;52.520;13.352;2023-03-01T02:29:04;37.72;;;16.27;;
31043;SDS011;17710;52.520;13.352;2023-03-01T02:31:31;32.70;;;16.02;;
31043;SDS011;17710;52.520;13.352;2023-03-01T02:34:08;33.83;;;15.93;;
31043;SDS011;17710;52.520;13.352;2023-03-01T02:36:39;37.05;;;15.32;;
31043;SDS011;17710;52.520;13.352;2023-03-01T02:39:09;36.22;;;16.65;;
31043;SDS011;17710;52.520;13.352;2023-03-01T02:41:43;34.17;;;15.88;;
31043;SDS011;17710;52.520;13.352;2023-03-01T02:44:14;33.90;;;14.77;;
31043;SDS011;17710;52.520;13.352;2023-03-01T02:46:43;34.63;;;15.80;;
31043;SDS011;17710;52.520;13.352;2023-03-01T02:49:19;39.50;;;16.58;;
31043;SDS011;17710;52.520;13.352;2023-03-01T02:54:22;36.75;;;15.82;;
31043;SDS011;17710;52.520;13.352;2023-03-01T02:56:53;37.65;;;16.13;;
31043;SDS011;17710;52.520;13.352;2023-03-01T02:59:21;37.22;;;16.23;;
31043;SDS011;17710;52.520;13.352;2023-03-01T03:01:50;36.00;;;16.00;;
31043;SDS011;17710;52.520;13.352;2023-03-01T03:04:17;36.50;;;15.52;;
31043;SDS011;17710;52.520;13.352;2023-03-01T03:06:45;34.35;;;16.10;;
31043;SDS011;17710;52.520;13.352;2023-03-01T03:09:14;32.95;;;15.20;;
31043;SDS011;17710;52.520;13.352;2023-03-01T03:11:41;35.20;;;16.45;;
31043;SDS011;17710;52.520;13.352;2023-03-01T03:14:08;35.25;;;16.00;;
31043;SDS011;17710;52.520;13.352;2023-03-01T03:16:40;37.85;;;16.23;;
31043;SDS011;17710;52.520;13.352;2023-03-01T03:19:07;36.97;;;15.90;;
31043;SDS011;17710;52.520;13.352;2023-03-01T03:21:34;32.30;;;15.77;;
31043;SDS011;17710;52.520;13.352;2023-03-01T03:24:00;38.40;;;16.05;;
31043;SDS011;17710;52.520;13.352;2023-03-01T03:26:27;38.42;;;16.55;;
31043;SDS011;17710;52.520;13.352;2023-03-01T03:28:53;32.10;;;16.38;;
31043;SDS011;17710;52.520;13.352;2023-03-01T03:31:20;34.78;;;15.88;;
31043;SDS011;17710;52.520;13.352;2023-03-01T03:33:47;35.20;;;16.33;;
31043;SDS011;17710;52.520;13.352;2023-03-01T03:36:15;33.33;;;15.25;;
31043;SDS011;17710;52.520;13.352;2023-03-01T03:38:42;32.92;;;15.50;;
31043;SDS011;17710;52.520;13.352;2023-03-01T03:41:10;37.42;;;15.32;;
31043;SDS011;17710;52.520;13.352;2023-03-01T03:43:37;40.80;;;17.38;;
31043;SDS011;17710;52.520;13.352;2023-03-01T03:46:05;34.53;;;15.52;;
31043;SDS011;17710;52.520;13.352;2023-03-01T03:48:32;36.63;;;16.65;;
31043;SDS011;17710;52.520;13.352;2023-03-01T03:51:01;35.47;;;16.40;;
31043;SDS011;17710;52.520;13.352;2023-03-01T03:53:30;33.03;;;16.48;;
31043;SDS011;17710;52.520;13.352;2023-03-01T03:55:57;32.65;;;15.80;;
31043;SDS011;17710;52.520;13.352;2023-03-01T03:58:24;31.02;;;15.00;;
31043;SDS011;17710;52.520;13.352;2023-03-01T04:00:52;33.47;;;15.88;;
31043;SDS011;17710;52.520;13.352;2023-03-01T04:03:20;34.20;;;15.73;;
31043;SDS011;17710;52.520;13.352;2023-03-01T04:05:47;34.85;;;16.48;;
31043;SDS011;17710;52.520;13.352;2023-03-01T04:08:16;38.83;;;15.32;;
31043;SDS011;17710;52.520;13.352;2023-03-01T04:10:45;28.55;;;15.23;;
31043;SDS011;17710;52.520;13.352;2023-03-01T04:13:13;40.05;;;16.23;;
31043;SDS011;17710;52.520;13.352;2023-03-01T04:15:41;33.55;;;15.40;;
31043;SDS011;17710;52.520;13.352;2023-03-01T04:18:09;34.33;;;15.85;;
31043;SDS011;17710;52.520;13.352;2023-03-01T04:20:38;33.92;;;14.93;;
31043;SDS011;17710;52.520;13.352;2023-03-01T04:23:06;34.25;;;15.85;;
31043;SDS011;17710;52.520;13.352;2023-03-01T04:25:39;32.47;;;15.68;;
31043;SDS011;17710;52.520;13.352;2023-03-01T04:28:07;33.10;;;15.75;;
31043;SDS011;17710;52.520;13.352;2023-03-01T04:30:35;34.53;;;15.80;;
31043;SDS011;17710;52.520;13.352;2023-03-01T04:33:02;34.65;;;15.48;;
31043;SDS011;17710;52.520;13.352;2023-03-01T04:35:29;35.58;;;17.17;;
31043;SDS011;17710;52.520;13.352;2023-03-01T04:37:55;38.70;;;15.90;;
31043;SDS011;17710;52.520;13.352;2023-03-01T04:40:22;36.75;;;16.38;;
31043;SDS011;17710;52.520;13.352;2023-03-01T04:42:50;35.53;;;16.00;;
31043;SDS011;17710;52.520;13.352;2023-03-01T04:45:16;33.00;;;15.43;;
31043;SDS011;17710;52.520;13.352;2023-03-01T04:47:43;39.25;;;15.77;;
31043;SDS011;17710;52.520;13.352;2023-03-01T04:50:12;35.20;;;14.82;;
31043;SDS011;17710;52.520;13.352;2023-03-01T04:52:40;35.58;;;14.93;;
31043;SDS011;17710;52.520;13.352;2023-03-01T04:55:07;36.55;;;15.93;;
31043;SDS011;17710;52.520;13.352;2023-03-01T04:57:34;32.67;;;15.60;;
31043;SDS011;17710;52.520;13.352;2023-03-01T05:00:02;34.97;;;15.73;;
31043;SDS011;17710;52.520;13.352;2023-03-01T05:02:44;30.08;;;14.65;;
31043;SDS011;17710;52.520;13.352;2023-03-01T05:05:13;36.00;;;15.60;;
31043;SDS011;17710;52.520;13.352;2023-03-01T05:07:39;42.70;;;15.88;;
31043;SDS011;17710;52.520;13.352;2023-03-01T05:10:06;37.15;;;16.27;;
31043;SDS011;17710;52.520;13.352;2023-03-01T05:12:33;36.85;;;15.93;;
31043;SDS011;17710;52.520;13.352;2023-03-01T05:15:04;38.70;;;15.85;;
31043;SDS011;17710;52.520;13.352;2023-03-01T05:17:32;35.55;;;15.80;;
31043;SDS011;17710;52.520;13.352;2023-03-01T05:19:58;32.10;;;15.48;;
31043;SDS011;17710;52.520;13.352;2023-03-01T05:22:25;33.50;;;16.15;;
31043;SDS011;17710;52.520;13.352;2023-03-01T05:24:52;35.22;;;16.80;;
31043;SDS011;17710;52.520;13.352;2023-03-01T05:27:20;36.63;;;16.63;;
31043;SDS011;17710;52.520;13.352;2023-03-01T05:29:47;36.67;;;15.45;;
31043;SDS011;17710;52.520;13.352;2023-03-01T05:32:15;30.80;;;15.60;;
31043;SDS011;17710;52.520;13.352;2023-03-01T05:34:42;32.33;;;16.58;;
31043;SDS011;17710;52.520;13.352;2023-03-01T05:37:09;31.95;;;15.57;;
31043;SDS011;17710;52.520;13.352;2023-03-01T05:39:35;35.20;;;15.63;;
31043;SDS011;17710;52.520;13.352;2023-03-01T05:42:02;33.58;;;16.13;;
31043;SDS011;17710;52.520;13.352;2023-03-01T05:44:28;32.80;;;16.27;;
31043;SDS011;17710;52.520;13.352;2023-03-01T05:46:55;39.95;;;15.73;;
31043;SDS011;17710;52.520;13.352;2023-03-01T05:49:23;36.83;;;16.52;;
31043;SDS011;17710;52.520;13.352;2023-03-01T05:51:51;36.10;;;16.05;;
31043;SDS011;17710;52.520;13.352;2023-03-01T05:54:19;35.08;;;16.40;;
31043;SDS011;17710;52.520;13.352;2023-03-01T05:56:46;40.03;;;16.65;;
31043;SDS011;17710;52.520;13.352;2023-03-01T05:59:13;29.95;;;15.90;;
31043;SDS011;17710;52.520;13.352;2023-03-01T06:01:41;33.83;;;15.63;;
31043;SDS011;17710;52.520;13.352;2023-03-01T06:04:08;33.53;;;15.52;;
31043;SDS011;17710;52.520;13.352;2023-03-01T06:06:35;33.15;;;15.38;;
31043;SDS011;17710;52.520;13.352;2023-03-01T06:09:03;34.83;;;16.33;;
31043;SDS011;17710;52.520;13.352;2023-03-01T06:11:30;33.13;;;16.17;;
31043;SDS011;17710;52.520;13.352;2023-03-01T06:13:56;33.92;;;16.42;;
31043;SDS011;17710;52.520;13.352;2023-03-01T06:16:22;30.98;;;15.15;;
31043;SDS011;17710;52.520;13.352;2023-03-01T06:18:49;33.38;;;15.15;;
31043;SDS011;17710;52.520;13.352;2023-03-01T06:21:16;37.13;;;16.05;;
31043;SDS011;17710;52.520;13.352;2023-03-01T06:23:43;36.58;;;15.57;;
31043;SDS011;17710;52.520;13.352;2023-03-01T06:26:10;28.67;;;15.52;;
31043;SDS011;17710;52.520;13.352;2023-03-01T06:28:37;32.08;;;15.50;;
31043;SDS011;17710;52.520;13.352;2023-03-01T06:31:03;37.88;;;17.95;;
31043;SDS011;17710;52.520;13.352;2023-03-01T06:33:33;38.17;;;17.30;;
31043;SDS011;17710;52.520;13.352;2023-03-01T06:36:00;34.97;;;16.38;;
31043;SDS011;17710;52.520;13.352;2023-03-01T06:38:30;39.80;;;17.73;;
31043;SDS011;17710;52.520;13.352;2023-03-01T06:41:01;34.88;;;17.45;;
31043;SDS011;17710;52.520;13.352;2023-03-01T06:43:28;35.10;;;16.98;;
31043;SDS011;17710;52.520;13.352;2023-03-01T06:45:55;35.40;;;16.95;;
31043;SDS011;17710;52.520;13.352;2023-03-01T06:48:21;38.78;;;16.85;;
31043;SDS011;17710;52.520;13.352;2023-03-01T06:50:48;41.55;;;17.92;;
31043;SDS011;17710;52.520;13.352;2023-03-01T06:53:14;37.47;;;16.58;;
31043;SDS011;17710;52.520;13.352;2023-03-01T06:55:40;35.67;;;16.33;;
31043;SDS011;17710;52.520;13.352;2023-03-01T06:58:09;36.65;;;17.73;;
31043;SDS011;17710;52.520;13.352;2023-03-01T07:00:36;47.72;;;16.95;;
31043;SDS011;17710;52.520;13.352;2023-03-01T07:03:02;38.67;;;16.73;;
31043;SDS011;17710;52.520;13.352;2023-03-01T07:05:29;42.60;;;15.85;;
31043;SDS011;17710;52.520;13.352;2023-03-01T07:07:56;33.25;;;16.15;;
31043;SDS011;17710;52.520;13.352;2023-03-01T07:10:22;34.10;;;15.20;;
31043;SDS011;17710;52.520;13.352;2023-03-01T07:12:49;36.55;;;15.77;;
31043;SDS011;17710;52.520;13.352;2023-03-01T07:15:17;42.22;;;16.15;;
31043;SDS011;17710;52.520;13.352;2023-03-01T07:17:43;35.70;;;15.98;;
31043;SDS011;17710;52.520;13.352;2023-03-01T07:20:12;35.92;;;17.20;;
31043;SDS011;17710;52.520;13.352;2023-03-01T07:22:39;39.70;;;18.15;;
31043;SDS011;17710;52.520;13.352;2023-03-01T07:25:07;32.80;;;16.08;;
31043;SDS011;17710;52.520;13.352;2023-03-01T07:27:34;38.50;;;16.90;;
31043;SDS011;17710;52.520;13.352;2023-03-01T07:30:00;40.17;;;16.98;;
31043;SDS011;17710;52.520;13.352;2023-03-01T07:32:28;34.33;;;16.08;;
31043;SDS011;17710;52.520;13.352;2023-03-01T07:34:54;33.58;;;15.63;;
31043;SDS011;17710;52.520;13.352;2023-03-01T07:37:21;35.08;;;14.23;;
31043;SDS011;17710;52.520;13.352;2023-03-01T07:39:47;38.42;;;16.38;;
31043;SDS011;17710;52.520;13.352;2023-03-01T07:42:14;36.33;;;15.07;;
31043;SDS011;17710;52.520;13.352;2023-03-01T07:44:40;35.47;;;16.38;;
31043;SDS011;17710;52.520;13.352;2023-03-01T07:47:06;33.15;;;16.17;;
31043;SDS011;17710;52.520;13.352;2023-03-01T07:49:34;31.95;;;15.95;;
31043;SDS011;17710;52.520;13.352;2023-03-01T07:52:01;37.42;;;16.73;;
31043;SDS011;17710;52.520;13.352;2023-03-01T07:54:27;35.35;;;15.82;;
31043;SDS011;17710;52.520;13.352;2023-03-01T07:56:54;36.08;;;16.23;;
31043;SDS011;17710;52.520;13.352;2023-03-01T07:59:22;28.50;;;13.48;;
31043;SDS011;17710;52.520;13.352;2023-03-01T08:01:48;33.95;;;12.77;;
31043;SDS011;17710;52.520;13.352;2023-03-01T08:04:15;28.05;;;13.52;;
31043;SDS011;17710;52.520;13.352;2023-03-01T08:06:42;29.30;;;13.20;;
31043;SDS011;17710;52.520;13.352;2023-03-01T08:09:09;29.92;;;13.55;;
31043;SDS011;17710;52.520;13.352;2023-03-01T08:11:35;28.08;;;12.10;;
31043;SDS011;17710;52.520;13.352;2023-03-01T08:14:02;22.08;;;10.30;;
31043;SDS011;17710;52.520;13.352;2023-03-01T08:16:29;21.40;;;9.45;;
31043;SDS011;17710;52.520;13.352;2023-03-01T08:18:55;20.33;;;10.07;;
31043;SDS011;17710;52.520;13.352;2023-03-01T08:21:25;16.38;;;8.50;;
31043;SDS011;17710;52.520;13.352;2023-03-01T08:23:53;20.30;;;9.88;;
31043;SDS011;17710;52.520;13.352;2023-03-01T08:26:20;19.65;;;8.85;;
31043;SDS011;17710;52.520;13.352;2023-03-01T08:28:47;14.07;;;8.15;;
31043;SDS011;17710;52.520;13.352;2023-03-01T08:31:16;19.75;;;8.52;;
31043;SDS011;17710;52.520;13.352;2023-03-01T08:33:44;16.55;;;8.40;;
31043;SDS011;17710;52.520;13.352;2023-03-01T08:36:15;14.75;;;6.47;;
31043;SDS011;17710;52.520;13.352;2023-03-01T08:38:42;13.57;;;5.65;;
31043;SDS011;17710;52.520;13.352;2023-03-01T08:41:10;19.88;;;6.85;;
31043;SDS011;17710;52.520;13.352;2023-03-01T08:43:36;30.52;;;8.75;;
31043;SDS011;17710;52.520;13.352;2023-03-01T08:46:03;20.38;;;7.70;;
31043;SDS011;17710;52.520;13.352;2023-03-01T08:48:30;16.60;;;6.70;;
31043;SDS011;17710;52.520;13.352;2023-03-01T08:50:56;20.25;;;6.82;;
31043;SDS011;17710;52.520;13.352;2023-03-01T08:53:32;11.63;;;5.00;;
31043;SDS011;17710;52.520;13.352;2023-03-01T08:55:59;20.40;;;5.70;;
31043;SDS011;17710;52.520;13.352;2023-03-01T08:58:27;22.55;;;9.23;;
31043;SDS011;17710;52.520;13.352;2023-03-01T09:00:53;14.48;;;4.90;;
31043;SDS011;17710;52.520;13.352;2023-03-01T09:03:21;8.60;;;5.10;;
31043;SDS011;17710;52.520;13.352;2023-03-01T09:05:48;14.05;;;5.38;;
31043;SDS011;17710;52.520;13.352;2023-03-01T09:08:15;18.88;;;5.78;;
31043;SDS011;17710;52.520;13.352;2023-03-01T09:10:41;14.35;;;5.28;;
31043;SDS011;17710;52.520;13.352;2023-03-01T09:13:08;16.63;;;5.60;;
31043;SDS011;17710;52.520;13.352;2023-03-01T09:15:37;15.68;;;5.22;;
31043;SDS011;17710;52.520;13.352;2023-03-01T09:18:04;13.88;;;5.60;;
31043;SDS011;17710;52.520;13.352;2023-03-01T09:20:31;17.70;;;6.47;;
31043;SDS011;17710;52.520;13.352;2023-03-01T09:22:58;14.73;;;5.47;;
31043;SDS011;17710;52.520;13.352;2023-03-01T09:25:24;13.30;;;5.20;;
31043;SDS011;17710;52.520;13.352;2023-03-01T09:27:51;15.93;;;5.43;;
31043;SDS011;17710;52.520;13.352;2023-03-01T09:30:18;18.15;;;5.70;;
31043;SDS011;17710;52.520;13.352;2023-03-01T09:32:46;13.70;;;5.53;;
31043;SDS011;17710;52.520;13.352;2023-03-01T09:35:13;13.70;;;5.68;;
31043;SDS011;17710;52.520;13.352;2023-03-01T09:37:39;17.30;;;6.30;;
31043;SDS011;17710;52.520;13.352;2023-03-01T09:40:09;19.40;;;6.45;;
31043;SDS011;17710;52.520;13.352;2023-03-01T09:42:45;12.20;;;5.07;;
31043;SDS011;17710;52.520;13.352;2023-03-01T09:45:21;9.65;;;4.82;;
31043;SDS011;17710;52.520;13.352;2023-03-01T09:47:53;8.48;;;3.97;;
31043;SDS011;17710;52.520;13.352;2023-03-01T09:50:21;11.52;;;4.82;;
31043;SDS011;17710;52.520;13.352;2023-03-01T09:52:50;12.85;;;5.53;;
31043;SDS011;17710;52.520;13.352;2023-03-01T09:55:25;11.30;;;5.38;;
31043;SDS011;17710;52.520;13.352;2023-03-01T09:57:56;11.55;;;5.18;;
31043;SDS011;17710;52.520;13.352;2023-03-01T10:00:32;10.82;;;4.97;;
31043;SDS011;17710;52.520;13.352;2023-03-01T10:03:13;10.57;;;5.47;;
31043;SDS011;17710;52.520;13.352;2023-03-01T10:05:49;10.60;;;5.20;;
31043;SDS011;17710;52.520;13.352;2023-03-01T10:08:26;10.10;;;5.82;;
31043;SDS011;17710;52.520;13.352;2023-03-01T10:11:00;11.73;;;5.70;;
31043;SDS011;17710;52.520;13.352;2023-03-01T10:13:29;13.90;;;5.85;;
31043;SDS011;17710;52.520;13.352;2023-03-01T10:16:03;11.88;;;5.47;;
31043;SDS011;17710;52.520;13.352;2023-03-01T10:18:39;13.50;;;6.28;;
31043;SDS011;17710;52.520;13.352;2023-03-01T10:21:11;11.32;;;5.40;;
31043;SDS011;17710;52.520;13.352;2023-03-01T10:23:41;20.05;;;5.13;;
31043;SDS011;17710;52.520;13.352;2023-03-01T10:29:05;10.27;;;4.80;;
31043;SDS011;17710;52.520;13.352;2023-03-01T10:31:36;11.60;;;5.35;;
31043;SDS011;17710;52.520;13.352;2023-03-01T10:34:09;13.23;;;5.15;;
31043;SDS011;17710;52.520;13.352;2023-03-01T10:36:36;12.50;;;5.28;;
31043;SDS011;17710;52.520;13.352;2023-03-01T10:39:05;12.10;;;5.18;;
31043;SDS011;17710;52.520;13.352;2023-03-01T10:41:40;9.80;;;4.68;;
31043;SDS011;17710;52.520;13.352;2023-03-01T10:44:34;9.52;;;4.55;;
31043;SDS011;17710;52.520;13.352;2023-03-01T10:47:02;8.70;;;4.28;;
31043;SDS011;17710;52.520;13.352;2023-03-01T10:49:30;11.70;;;4.50;;
31043;SDS011;17710;52.520;13.352;2023-03-01T10:51:57;8.13;;;4.03;;
31043;SDS011;17710;52.520;13.352;2023-03-01T10:54:44;8.63;;;3.90;;
31043;SDS011;17710;52.520;13.352;2023-03-01T10:57:24;7.10;;;3.47;;
31043;SDS011;17710;52.520;13.352;2023-03-01T11:00:00;6.63;;;3.35;;
31043;SDS011;17710;52.520;13.352;2023-03-01T11:02:41;6.22;;;3.33;;
31043;SDS011;17710;52.520;13.352;2023-03-01T11:05:16;10.65;;;3.28;;
31043;SDS011;17710;52.520;13.352;2023-03-01T11:07:48;8.57;;;3.60;;
31043;SDS011;17710;52.520;13.352;2023-03-01T11:10:17;11.38;;;3.90;;
31043;SDS011;17710;52.520;13.352;2023-03-01T11:12:44;9.73;;;3.58;;
31043;SDS011;17710;52.520;13.352;2023-03-01T11:15:19;8.27;;;3.60;;
31043;SDS011;17710;52.520;13.352;2023-03-01T11:17:51;6.32;;;3.45;;
31043;SDS011;17710;52.520;13.352;2023-03-01T11:20:23;15.02;;;4.90;;
31043;SDS011;17710;52.520;13.352;2023-03-01T11:22:53;6.53;;;2.90;;
31043;SDS011;17710;52.520;13.352;2023-03-01T11:25:23;6.88;;;2.70;;
31043;SDS011;17710;52.520;13.352;2023-03-01T11:27:52;8.30;;;2.70;;
31043;SDS011;17710;52.520;13.352;2023-03-01T11:30:20;7.35;;;2.45;;
31043;SDS011;17710;52.520;13.352;2023-03-01T11:32:53;5.78;;;2.38;;
31043;SDS011;17710;52.520;13.352;2023-03-01T11:35:30;7.18;;;2.60;;
31043;SDS011;17710;52.520;13.352;2023-03-01T11:38:03;4.88;;;2.85;;
31043;SDS011;17710;52.520;13.352;2023-03-01T11:40:42;10.75;;;2.65;;
31043;SDS011;17710;52.520;13.352;2023-03-01T11:43:15;8.95;;;2.70;;
31043;SDS011;17710;52.520;13.352;2023-03-01T11:45:53;5.97;;;2.15;;
31043;SDS011;17710;52.520;13.352;2023-03-01T11:48:34;12.38;;;2.80;;
31043;SDS011;17710;52.520;13.352;2023-03-01T11:51:20;6.78;;;2.85;;
31043;SDS011;17710;52.520;13.352;2023-03-01T11:53:54;8.07;;;2.65;;
31043;SDS011;17710;52.520;13.352;2023-03-01T11:56:29;8.55;;;3.00;;
31043;SDS011;17710;52.520;13.352;2023-03-01T11:59:06;6.72;;;3.53;;
31043;SDS011;17710;52.520;13.352;2023-03-01T12:01:49;8.65;;;2.88;;
31043;SDS011;17710;52.520;13.352;2023-03-01T12:04:47;5.70;;;2.92;;
31043;SDS011;17710;52.520;13.352;2023-03-01T12:07:29;8.30;;;3.03;;
31043;SDS011;17710;52.520;13.352;2023-03-01T12:10:16;7.55;;;2.75;;
31043;SDS011;17710;52.520;13.352;2023-03-01T12:12:52;4.70;;;2.83;;
31043;SDS011;17710;52.520;13.352;2023-03-01T12:15:32;11.00;;;3.00;;
31043;SDS011;17710;52.520;13.352;2023-03-01T12:18:18;5.32;;;2.40;;
31043;SDS011;17710;52.520;13.352;2023-03-01T12:21:10;2.90;;;2.20;;
31043;SDS011;17710;52.520;13.352;2023-03-01T12:26:52;5.43;;;2.00;;
31043;SDS011;17710;52.520;13.352;2023-03-01T12:29:30;6.60;;;2.25;;
31043;SDS011;17710;52.520;13.352;2023-03-01T12:32:10;4.72;;;2.20;;
31043;SDS011;17710;52.520;13.352;2023-03-01T12:34:54;4.70;;;2.85;;
31043;SDS011;17710;52.520;13.352;2023-03-01T12:37:35;6.20;;;2.40;;
31043;SDS011;17710;52.520;13.352;2023-03-01T12:40:15;5.32;;;2.40;;
31043;SDS011;17710;52.520;13.352;2023-03-01T12:42:55;6.15;;;2.33;;
31043;SDS011;17710;52.520;13.352;2023-03-01T12:45:32;4.82;;;2.28;;
31043;SDS011;17710;52.520;13.352;2023-03-01T12:51:07;4.35;;;2.38;;
31043;SDS011;17710;52.520;13.352;2023-03-01T12:53:37;7.00;;;2.72;;
31043;SDS011;17710;52.520;13.352;2023-03-01T12:56:10;4.55;;;2.03;;
31043;SDS011;17710;52.520;13.352;2023-03-01T12:58:39;5.95;;;2.80;;
31043;SDS011;17710;52.520;13.352;2023-03-01T13:01:18;4.85;;;2.47;;
31043;SDS011;17710;52.520;13.352;2023-03-01T13:06:47;7.40;;;2.75;;
31043;SDS011;17710;52.520;13.352;2023-03-01T13:09:23;6.05;;;3.00;;
31043;SDS011;17710;52.520;13.352;2023-03-01T13:11:56;5.85;;;2.65;;
31043;SDS011;17710;52.520;13.352;2023-03-01T13:14:35;5.85;;;2.97;;
31043;SDS011;17710;52.520;13.352;2023-03-01T13:17:03;6.53;;;3.05;;
31043;SDS011;17710;52.520;13.352;2023-03-01T13:19:29;6.15;;;2.70;;
31043;SDS011;17710;52.520;13.352;2023-03-01T13:21:57;3.08;;;2.22;;
31043;SDS011;17710;52.520;13.352;2023-03-01T13:24:25;4.70;;;2.88;;
31043;SDS011;17710;52.520;13.352;2023-03-01T13:27:10;3.75;;;2.50;;
31043;SDS011;17710;52.520;13.352;2023-03-01T13:29:50;7.40;;;2.13;;
31043;SDS011;17710;52.520;13.352;2023-03-01T13:32:21;3.85;;;2.70;;
31043;SDS011;17710;52.520;13.352;2023-03-01T13:34:50;3.80;;;2.60;;
31043;SDS011;17710;52.520;13.352;2023-03-01T13:37:19;5.47;;;2.38;;
31043;SDS011;17710;52.520;13.352;2023-03-01T13:39:48;4.68;;;2.42;;
31043;SDS011;17710;52.520;13.352;2023-03-01T13:45:19;5.40;;;3.00;;
31043;SDS011;17710;52.520;13.352;2023-03-01T13:47:50;4.70;;;2.38;;
31043;SDS011;17710;52.520;13.352;2023-03-01T13:50:23;4.95;;;2.70;;
31043;SDS011;17710;52.520;13.352;2023-03-01T13:52:52;4.25;;;2.17;;
31043;SDS011;17710;52.520;13.352;2023-03-01T13:55:26;4.50;;;2.45;;
31043;SDS011;17710;52.520;13.352;2023-03-01T13:58:03;19.77;;;3.90;;
31043;SDS011;17710;52.520;13.352;2023-03-01T14:00:39;6.82;;;2.83;;
31043;SDS011;17710;52.520;13.352;2023-03-01T14:03:10;5.65;;;2.20;;
31043;SDS011;17710;52.520;13.352;2023-03-01T14:05:39;6.97;;;2.60;;
31043;SDS011;17710;52.520;13.352;2023-03-01T14:08:18;4.97;;;1.95;;
31043;SDS011;17710;52.520;13.352;2023-03-01T14:10:51;7.32;;;3.85;;
31043;SDS011;17710;52.520;13.352;2023-03-01T14:13:29;5.20;;;1.90;;
31043;SDS011;17710;52.520;13.352;2023-03-01T14:16:06;4.05;;;1.90;;
31043;SDS011;17710;52.520;13.352;2023-03-01T14:18:44;2.97;;;1.88;;
31043;SDS011;17710;52.520;13.352;2023-03-01T14:21:18;3.80;;;1.63;;
31043;SDS011;17710;52.520;13.352;2023-03-01T14:23:44;4.35;;;1.83;;
31043;SDS011;17710;52.520;13.352;2023-03-01T14:26:12;4.68;;;1.60;;
31043;SDS011;17710;52.520;13.352;2023-03-01T14:28:40;2.20;;;1.83;;
31043;SDS011;17710;52.520;13.352;2023-03-01T14:34:01;3.85;;;1.80;;
31043;SDS011;17710;52.520;13.352;2023-03-01T14:36:28;6.85;;;1.80;;
31043;SDS011;17710;52.520;13.352;2023-03-01T14:38:56;4.82;;;1.65;;
31043;SDS011;17710;52.520;13.352;2023-03-01T14:41:29;3.20;;;1.83;;
31043;SDS011;17710;52.520;13.352;2023-03-01T14:44:00;6.57;;;2.00;;
31043;SDS011;17710;52.520;13.352;2023-03-01T14:46:30;3.45;;;1.85;;
31043;SDS011;17710;52.520;13.352;2023-03-01T14:49:01;5.57;;;1.77;;
31043;SDS011;17710;52.520;13.352;2023-03-01T14:51:29;6.82;;;1.70;;
31043;SDS011;17710;52.520;13.352;2023-03-01T14:53:56;5.65;;;2.35;;
31043;SDS011;17710;52.520;13.352;2023-03-01T14:56:23;4.80;;;1.80;;